sensor_id;sensor_type;location;lat;lon;timestamp;P1;durP1;ratioP1;P2;durP2;ratioP2
72132;SDS011;60008;50.826;6.896;2023-02-28T00:01:56;4.43;;;1.90;;
72132;SDS011;60008;50.826;6.896;2023-02-28T00:04:42;6.37;;;1.67;;
72132;SDS011;60008;50.826;6.896;2023-02-28T00:07:27;5.35;;;1.98;;
72132;SDS011;60008;50.826;6.896;2023-02-28T00:10:13;8.20;;;1.90;;
72132;SDS011;60008;50.826;6.896;2023-02-28T00:13:05;9.10;;;3.10;;
72132;SDS011;60008;50.826;6.896;2023-02-28T00:15:58;6.82;;;3.30;;
72132;SDS011;60008;50.826;6.896;2023-02-28T00:18:47;5.30;;;2.27;;
72132;SDS011;60008;50.826;6.896;2023-02-28T00:21:33;8.20;;;3.13;;
72132;SDS011;60008;50.826;6.896;2023-02-28T00:24:18;5.97;;;2.22;;
72132;SDS011;60008;50.826;6.896;2023-02-28T00:27:03;7.70;;;2.33;;
72132;SDS011;60008;50.826;6.896;2023-02-28T00:29:48;7.18;;;2.88;;
72132;SDS011;60008;50.826;6.896;2023-02-28T00:32:33;9.27;;;3.50;;
72132;SDS011;60008;50.826;6.896;2023-02-28T00:35:19;5.47;;;1.50;;
72132;SDS011;60008;50.826;6.896;2023-02-28T00:38:04;4.38;;;1.52;;
72132;SDS011;60008;50.826;6.896;2023-02-28T00:40:49;5.90;;;2.15;;
72132;SDS011;60008;50.826;6.896;2023-02-28T00:43:34;11.15;;;2.00;;
72132;SDS011;60008;50.826;6.896;2023-02-28T00:46:20;6.27;;;1.80;;
72132;SDS011;60008;50.826;6.896;2023-02-28T00:49:05;7.90;;;2.58;;
72132;SDS011;60008;50.826;6.896;2023-02-28T00:51:50;5.55;;;2.13;;
72132;SDS011;60008;50.826;6.896;2023-02-28T00:54:36;6.25;;;1.90;;
72132;SDS011;60008;50.826;6.896;2023-02-28T00:57:21;5.20;;;2.10;;
72132;SDS011;60008;50.826;6.896;2023-02-28T01:00:06;6.40;;;2.37;;
72132;SDS011;60008;50.826;6.896;2023-02-28T01:02:52;4.15;;;1.80;;
72132;SDS011;60008;50.826;6.896;2023-02-28T01:05:37;5.15;;;1.88;;
72132;SDS011;60008;50.826;6.896;2023-02-28T01:08:22;4.28;;;1.50;;
72132;SDS011;60008;50.826;6.896;2023-02-28T01:11:08;4.03;;;1.55;;
72132;SDS011;60008;50.826;6.896;2023-02-28T01:13:54;6.37;;;2.13;;
72132;SDS011;60008;50.826;6.896;2023-02-28T01:16:39;4.82;;;1.67;;
72132;SDS011;60008;50.826;6.896;2023-02-28T01:19:25;4.25;;;1.50;;
72132;SDS011;60008;50.826;6.896;2023-02-28T01:22:10;5.35;;;1.48;;
72132;SDS011;60008;50.826;6.896;2023-02-28T01:24:55;3.95;;;1.35;;
72132;SDS011;60008;50.826;6.896;2023-02-28T01:27:40;3.70;;;1.40;;
72132;SDS011;60008;50.826;6.896;2023-02-28T01:30:25;8.45;;;1.73;;
72132;SDS011;60008;50.826;6.896;2023-02-28T01:33:10;3.90;;;1.50;;
72132;SDS011;60008;50.826;6.896;2023-02-28T01:35:58;4.28;;;1.55;;
72132;SDS011;60008;50.826;6.896;2023-02-28T01:38:45;2.80;;;1.10;;
72132;SDS011;60008;50.826;6.896;2023-02-28T01:41:31;1.67;;;0.83;;
72132;SDS011;60008;50.826;6.896;2023-02-28T01:47:41;3.35;;;1.30;;
72132;SDS011;60008;50.826;6.896;2023-02-28T01:50:29;4.15;;;1.05;;
72132;SDS011;60008;50.826;6.896;2023-02-28T01:53:21;3.90;;;1.15;;
72132;SDS011;60008;50.826;6.896;2023-02-28T01:56:12;3.50;;;1.30;;
72132;SDS011;60008;50.826;6.896;2023-02-28T01:59:04;3.60;;;1.25;;
72132;SDS011;60008;50.826;6.896;2023-02-28T02:01:49;2.72;;;0.90;;
72132;SDS011;60008;50.826;6.896;2023-02-28T02:07:54;3.65;;;1.40;;
72132;SDS011;60008;50.826;6.896;2023-02-28T02:10:45;4.33;;;1.50;;
72132;SDS011;60008;50.826;6.896;2023-02-28T02:13:37;9.38;;;2.45;;
72132;SDS011;60008;50.826;6.896;2023-02-28T02:25:43;3.57;;;1.53;;
72132;SDS011;60008;50.826;6.896;2023-02-28T02:28:47;10.13;;;1.48;;
72132;SDS011;60008;50.826;6.896;2023-02-28T02:38:06;3.20;;;1.40;;
72132;SDS011;60008;50.826;6.896;2023-02-28T02:41:02;3.63;;;1.47;;
72132;SDS011;60008;50.826;6.896;2023-02-28T02:44:00;3.83;;;1.58;;
72132;SDS011;60008;50.826;6.896;2023-02-28T02:46:52;6.78;;;1.60;;
72132;SDS011;60008;50.826;6.896;2023-02-28T02:49:49;3.63;;;1.23;;
72132;SDS011;60008;50.826;6.896;2023-02-28T02:52:42;4.22;;;2.00;;
72132;SDS011;60008;50.826;6.896;2023-02-28T02:55:34;3.27;;;1.50;;
72132;SDS011;60008;50.826;6.896;2023-02-28T02:58:25;6.50;;;1.95;;
72132;SDS011;60008;50.826;6.896;2023-02-28T03:01:21;4.63;;;1.60;;
72132;SDS011;60008;50.826;6.896;2023-02-28T03:04:15;6.53;;;2.13;;
72132;SDS011;60008;50.826;6.896;2023-02-28T03:07:03;6.15;;;1.95;;
72132;SDS011;60008;50.826;6.896;2023-02-28T03:09:50;5.57;;;2.30;;
72132;SDS011;60008;50.826;6.896;2023-02-28T03:12:44;6.43;;;1.55;;
72132;SDS011;60008;50.826;6.896;2023-02-28T03:18:45;6.32;;;1.48;;
72132;SDS011;60008;50.826;6.896;2023-02-28T03:21:34;3.35;;;1.35;;
72132;SDS011;60008;50.826;6.896;2023-02-28T03:24:32;6.77;;;1.60;;
72132;SDS011;60008;50.826;6.896;2023-02-28T03:27:40;4.72;;;1.70;;
72132;SDS011;60008;50.826;6.896;2023-02-28T03:30:35;3.05;;;1.40;;
72132;SDS011;60008;50.826;6.896;2023-02-28T03:33:27;2.78;;;1.33;;
72132;SDS011;60008;50.826;6.896;2023-02-28T03:36:19;3.67;;;1.50;;
72132;SDS011;60008;50.826;6.896;2023-02-28T03:39:09;6.23;;;1.40;;
72132;SDS011;60008;50.826;6.896;2023-02-28T03:42:04;5.68;;;1.75;;
72132;SDS011;60008;50.826;6.896;2023-02-28T03:44:57;3.85;;;1.58;;
72132;SDS011;60008;50.826;6.896;2023-02-28T03:47:56;5.60;;;1.52;;
72132;SDS011;60008;50.826;6.896;2023-02-28T03:50:45;5.43;;;1.35;;
72132;SDS011;60008;50.826;6.896;2023-02-28T03:53:39;7.10;;;1.40;;
72132;SDS011;60008;50.826;6.896;2023-02-28T03:56:34;3.30;;;1.58;;
72132;SDS011;60008;50.826;6.896;2023-02-28T04:02:35;6.65;;;1.95;;
72132;SDS011;60008;50.826;6.896;2023-02-28T04:05:20;4.35;;;1.60;;
72132;SDS011;60008;50.826;6.896;2023-02-28T04:08:06;3.93;;;1.50;;
72132;SDS011;60008;50.826;6.896;2023-02-28T04:10:55;5.05;;;1.65;;
72132;SDS011;60008;50.826;6.896;2023-02-28T04:13:45;3.53;;;1.40;;
72132;SDS011;60008;50.826;6.896;2023-02-28T04:16:31;4.13;;;1.83;;
72132;SDS011;60008;50.826;6.896;2023-02-28T04:19:19;2.72;;;0.98;;
72132;SDS011;60008;50.826;6.896;2023-02-28T04:22:04;5.17;;;1.70;;
72132;SDS011;60008;50.826;6.896;2023-02-28T04:24:49;4.78;;;1.90;;
72132;SDS011;60008;50.826;6.896;2023-02-28T04:27:34;3.00;;;1.30;;
72132;SDS011;60008;50.826;6.896;2023-02-28T04:30:19;8.95;;;1.33;;
72132;SDS011;60008;50.826;6.896;2023-02-28T04:33:04;3.17;;;1.00;;
72132;SDS011;60008;50.826;6.896;2023-02-28T04:36:03;2.80;;;1.20;;
72132;SDS011;60008;50.826;6.896;2023-02-28T04:38:50;4.35;;;1.40;;
72132;SDS011;60008;50.826;6.896;2023-02-28T04:41:35;2.35;;;1.10;;
72132;SDS011;60008;50.826;6.896;2023-02-28T04:44:21;4.47;;;1.40;;
72132;SDS011;60008;50.826;6.896;2023-02-28T04:47:06;3.90;;;1.70;;
72132;SDS011;60008;50.826;6.896;2023-02-28T04:49:51;2.73;;;1.30;;
72132;SDS011;60008;50.826;6.896;2023-02-28T04:52:36;2.47;;;1.20;;
72132;SDS011;60008;50.826;6.896;2023-02-28T04:55:21;4.05;;;1.80;;
72132;SDS011;60008;50.826;6.896;2023-02-28T04:58:06;2.83;;;1.27;;
72132;SDS011;60008;50.826;6.896;2023-02-28T05:00:54;3.60;;;1.40;;
72132;SDS011;60008;50.826;6.896;2023-02-28T05:03:45;5.93;;;1.60;;
72132;SDS011;60008;50.826;6.896;2023-02-28T05:06:31;5.97;;;1.48;;
72132;SDS011;60008;50.826;6.896;2023-02-28T05:09:18;3.85;;;1.33;;
72132;SDS011;60008;50.826;6.896;2023-02-28T05:12:03;5.18;;;1.45;;
72132;SDS011;60008;50.826;6.896;2023-02-28T05:14:48;3.58;;;1.20;;
72132;SDS011;60008;50.826;6.896;2023-02-28T05:17:33;3.30;;;1.57;;
72132;SDS011;60008;50.826;6.896;2023-02-28T05:20:18;2.33;;;1.30;;
72132;SDS011;60008;50.826;6.896;2023-02-28T05:23:03;4.00;;;1.35;;
72132;SDS011;60008;50.826;6.896;2023-02-28T05:25:48;4.47;;;1.70;;
72132;SDS011;60008;50.826;6.896;2023-02-28T05:28:33;3.95;;;1.42;;
72132;SDS011;60008;50.826;6.896;2023-02-28T05:31:18;5.87;;;1.33;;
72132;SDS011;60008;50.826;6.896;2023-02-28T05:34:04;3.50;;;1.35;;
72132;SDS011;60008;50.826;6.896;2023-02-28T05:36:50;2.17;;;1.00;;
72132;SDS011;60008;50.826;6.896;2023-02-28T05:39:35;2.45;;;1.00;;
72132;SDS011;60008;50.826;6.896;2023-02-28T05:42:20;3.22;;;1.40;;
72132;SDS011;60008;50.826;6.896;2023-02-28T05:45:06;3.03;;;1.17;;
72132;SDS011;60008;50.826;6.896;2023-02-28T05:47:55;4.22;;;1.58;;
72132;SDS011;60008;50.826;6.896;2023-02-28T05:50:40;3.20;;;1.30;;
72132;SDS011;60008;50.826;6.896;2023-02-28T05:53:25;6.47;;;1.50;;
72132;SDS011;60008;50.826;6.896;2023-02-28T05:56:11;2.75;;;1.20;;
72132;SDS011;60008;50.826;6.896;2023-02-28T05:58:56;2.80;;;1.30;;
72132;SDS011;60008;50.826;6.896;2023-02-28T06:01:42;3.03;;;1.30;;
72132;SDS011;60008;50.826;6.896;2023-02-28T06:04:33;4.60;;;1.88;;
72132;SDS011;60008;50.826;6.896;2023-02-28T06:07:18;3.08;;;1.20;;
72132;SDS011;60008;50.826;6.896;2023-02-28T06:10:04;3.67;;;1.63;;
72132;SDS011;60008;50.826;6.896;2023-02-28T06:12:49;5.47;;;1.90;;
72132;SDS011;60008;50.826;6.896;2023-02-28T06:15:34;3.78;;;1.63;;
72132;SDS011;60008;50.826;6.896;2023-02-28T06:18:19;4.32;;;1.70;;
72132;SDS011;60008;50.826;6.896;2023-02-28T06:21:04;3.97;;;1.40;;
72132;SDS011;60008;50.826;6.896;2023-02-28T06:23:49;4.75;;;2.00;;
72132;SDS011;60008;50.826;6.896;2023-02-28T06:26:35;6.47;;;2.00;;
72132;SDS011;60008;50.826;6.896;2023-02-28T06:29:20;5.95;;;1.73;;
72132;SDS011;60008;50.826;6.896;2023-02-28T06:32:06;8.02;;;1.35;;
72132;SDS011;60008;50.826;6.896;2023-02-28T06:34:51;3.22;;;1.45;;
72132;SDS011;60008;50.826;6.896;2023-02-28T06:37:36;2.58;;;1.08;;
72132;SDS011;60008;50.826;6.896;2023-02-28T06:40:24;2.93;;;1.47;;
72132;SDS011;60008;50.826;6.896;2023-02-28T06:43:10;3.85;;;0.90;;
72132;SDS011;60008;50.826;6.896;2023-02-28T06:45:59;3.53;;;1.45;;
72132;SDS011;60008;50.826;6.896;2023-02-28T06:48:45;4.53;;;1.27;;
72132;SDS011;60008;50.826;6.896;2023-02-28T06:51:30;2.28;;;0.80;;
72132;SDS011;60008;50.826;6.896;2023-02-28T06:54:15;4.07;;;1.33;;
72132;SDS011;60008;50.826;6.896;2023-02-28T06:57:00;3.03;;;1.17;;
72132;SDS011;60008;50.826;6.896;2023-02-28T06:59:45;6.53;;;1.00;;
72132;SDS011;60008;50.826;6.896;2023-02-28T07:02:30;5.30;;;1.38;;
72132;SDS011;60008;50.826;6.896;2023-02-28T07:05:16;2.38;;;0.88;;
72132;SDS011;60008;50.826;6.896;2023-02-28T07:08:03;3.90;;;1.50;;
72132;SDS011;60008;50.826;6.896;2023-02-28T07:10:51;3.63;;;1.00;;
72132;SDS011;60008;50.826;6.896;2023-02-28T07:13:37;3.00;;;1.38;;
72132;SDS011;60008;50.826;6.896;2023-02-28T07:16:22;5.88;;;1.67;;
72132;SDS011;60008;50.826;6.896;2023-02-28T07:19:09;3.60;;;1.23;;
72132;SDS011;60008;50.826;6.896;2023-02-28T07:21:54;4.57;;;1.70;;
72132;SDS011;60008;50.826;6.896;2023-02-28T07:24:38;2.55;;;1.20;;
72132;SDS011;60008;50.826;6.896;2023-02-28T07:27:23;1.88;;;0.75;;
72132;SDS011;60008;50.826;6.896;2023-02-28T07:30:10;3.30;;;1.23;;
72132;SDS011;60008;50.826;6.896;2023-02-28T07:32:55;5.35;;;1.20;;
72132;SDS011;60008;50.826;6.896;2023-02-28T07:35:41;3.00;;;1.27;;
72132;SDS011;60008;50.826;6.896;2023-02-28T07:38:26;4.03;;;0.95;;
72132;SDS011;60008;50.826;6.896;2023-02-28T07:41:11;3.03;;;1.02;;
72132;SDS011;60008;50.826;6.896;2023-02-28T07:43:56;2.72;;;1.20;;
72132;SDS011;60008;50.826;6.896;2023-02-28T07:46:43;3.70;;;1.50;;
72132;SDS011;60008;50.826;6.896;2023-02-28T07:49:28;2.90;;;1.27;;
72132;SDS011;60008;50.826;6.896;2023-02-28T07:52:13;7.70;;;2.83;;
72132;SDS011;60008;50.826;6.896;2023-02-28T07:54:59;11.70;;;3.83;;
72132;SDS011;60008;50.826;6.896;2023-02-28T07:57:43;11.63;;;3.55;;
72132;SDS011;60008;50.826;6.896;2023-02-28T08:00:29;11.38;;;4.43;;
72132;SDS011;60008;50.826;6.896;2023-02-28T08:03:19;19.03;;;6.23;;
72132;SDS011;60008;50.826;6.896;2023-02-28T08:06:07;5.50;;;1.60;;
72132;SDS011;60008;50.826;6.896;2023-02-28T08:08:59;6.50;;;2.55;;
72132;SDS011;60008;50.826;6.896;2023-02-28T08:11:44;1.70;;;0.60;;
72132;SDS011;60008;50.826;6.896;2023-02-28T08:14:29;6.22;;;1.75;;
72132;SDS011;60008;50.826;6.896;2023-02-28T08:17:14;2.20;;;0.70;;
72132;SDS011;60008;50.826;6.896;2023-02-28T08:19:59;6.65;;;1.35;;
72132;SDS011;60008;50.826;6.896;2023-02-28T08:22:44;2.53;;;0.90;;
72132;SDS011;60008;50.826;6.896;2023-02-28T08:25:30;3.90;;;1.60;;
72132;SDS011;60008;50.826;6.896;2023-02-28T08:28:15;4.05;;;1.55;;
72132;SDS011;60008;50.826;6.896;2023-02-28T08:31:00;1.17;;;0.30;;
72132;SDS011;60008;50.826;6.896;2023-02-28T08:33:45;5.85;;;0.80;;
72132;SDS011;60008;50.826;6.896;2023-02-28T08:36:33;1.23;;;0.63;;
72132;SDS011;60008;50.826;6.896;2023-02-28T08:39:19;2.00;;;0.75;;
72132;SDS011;60008;50.826;6.896;2023-02-28T08:42:04;2.08;;;0.70;;
72132;SDS011;60008;50.826;6.896;2023-02-28T08:44:52;3.07;;;1.03;;
72132;SDS011;60008;50.826;6.896;2023-02-28T08:47:37;10.20;;;1.58;;
72132;SDS011;60008;50.826;6.896;2023-02-28T08:50:22;4.55;;;1.42;;
72132;SDS011;60008;50.826;6.896;2023-02-28T08:53:07;3.10;;;1.05;;
72132;SDS011;60008;50.826;6.896;2023-02-28T08:55:55;2.45;;;1.15;;
72132;SDS011;60008;50.826;6.896;2023-02-28T08:58:47;5.07;;;2.00;;
72132;SDS011;60008;50.826;6.896;2023-02-28T09:01:32;1.30;;;0.43;;
72132;SDS011;60008;50.826;6.896;2023-02-28T09:04:18;1.90;;;0.70;;
72132;SDS011;60008;50.826;6.896;2023-02-28T09:07:05;2.17;;;0.70;;
72132;SDS011;60008;50.826;6.896;2023-02-28T09:09:50;1.38;;;0.65;;
72132;SDS011;60008;50.826;6.896;2023-02-28T09:12:38;0.97;;;0.40;;
72132;SDS011;60008;50.826;6.896;2023-02-28T09:15:23;1.92;;;0.70;;
72132;SDS011;60008;50.826;6.896;2023-02-28T09:18:08;1.55;;;0.65;;
72132;SDS011;60008;50.826;6.896;2023-02-28T09:20:54;2.05;;;0.55;;
72132;SDS011;60008;50.826;6.896;2023-02-28T09:23:40;3.72;;;1.23;;
72132;SDS011;60008;50.826;6.896;2023-02-28T09:26:26;1.77;;;0.77;;
72132;SDS011;60008;50.826;6.896;2023-02-28T09:29:26;2.95;;;0.70;;
72132;SDS011;60008;50.826;6.896;2023-02-28T09:32:11;0.95;;;0.30;;
72132;SDS011;60008;50.826;6.896;2023-02-28T09:34:56;2.55;;;0.68;;
72132;SDS011;60008;50.826;6.896;2023-02-28T09:37:41;1.30;;;0.40;;
72132;SDS011;60008;50.826;6.896;2023-02-28T09:40:26;3.53;;;1.00;;
72132;SDS011;60008;50.826;6.896;2023-02-28T09:43:12;1.77;;;0.85;;
72132;SDS011;60008;50.826;6.896;2023-02-28T09:49:35;5.60;;;2.58;;
72132;SDS011;60008;50.826;6.896;2023-02-28T09:52:27;1.75;;;0.60;;
72132;SDS011;60008;50.826;6.896;2023-02-28T09:58:00;2.67;;;1.17;;
72132;SDS011;60008;50.826;6.896;2023-02-28T10:00:55;4.22;;;1.10;;
72132;SDS011;60008;50.826;6.896;2023-02-28T10:03:48;3.40;;;1.98;;
72132;SDS011;60008;50.826;6.896;2023-02-28T10:06:48;1.83;;;0.90;;
72132;SDS011;60008;50.826;6.896;2023-02-28T10:09:35;2.93;;;1.00;;
72132;SDS011;60008;50.826;6.896;2023-02-28T10:12:21;2.10;;;1.00;;
72132;SDS011;60008;50.826;6.896;2023-02-28T10:15:07;1.90;;;1.13;;
72132;SDS011;60008;50.826;6.896;2023-02-28T10:17:59;1.35;;;0.60;;
72132;SDS011;60008;50.826;6.896;2023-02-28T10:20:53;2.95;;;1.10;;
72132;SDS011;60008;50.826;6.896;2023-02-28T10:23:40;3.33;;;1.40;;
72132;SDS011;60008;50.826;6.896;2023-02-28T10:26:26;4.95;;;1.42;;
72132;SDS011;60008;50.826;6.896;2023-02-28T10:29:15;2.50;;;1.17;;
72132;SDS011;60008;50.826;6.896;2023-02-28T10:32:00;4.00;;;1.10;;
72132;SDS011;60008;50.826;6.896;2023-02-28T10:38:00;3.03;;;1.13;;
72132;SDS011;60008;50.826;6.896;2023-02-28T10:41:05;2.22;;;0.90;;
72132;SDS011;60008;50.826;6.896;2023-02-28T10:43:50;2.72;;;1.23;;
72132;SDS011;60008;50.826;6.896;2023-02-28T10:46:35;3.10;;;1.35;;
72132;SDS011;60008;50.826;6.896;2023-02-28T10:49:22;1.60;;;0.60;;
72132;SDS011;60008;50.826;6.896;2023-02-28T10:52:09;4.27;;;1.80;;
72132;SDS011;60008;50.826;6.896;2023-02-28T10:54:57;2.20;;;0.90;;
72132;SDS011;60008;50.826;6.896;2023-02-28T10:57:59;2.53;;;1.10;;
72132;SDS011;60008;50.826;6.896;2023-02-28T11:00:44;2.67;;;1.35;;
72132;SDS011;60008;50.826;6.896;2023-02-28T11:03:32;2.90;;;1.30;;
72132;SDS011;60008;50.826;6.896;2023-02-28T11:09:44;3.40;;;1.30;;
72132;SDS011;60008;50.826;6.896;2023-02-28T11:12:34;2.28;;;1.05;;
72132;SDS011;60008;50.826;6.896;2023-02-28T11:15:34;3.92;;;1.48;;
72132;SDS011;60008;50.826;6.896;2023-02-28T11:18:21;4.10;;;1.60;;
72132;SDS011;60008;50.826;6.896;2023-02-28T11:21:35;1.73;;;0.80;;
72132;SDS011;60008;50.826;6.896;2023-02-28T11:24:35;3.13;;;1.45;;
72132;SDS011;60008;50.826;6.896;2023-02-28T11:30:23;3.83;;;1.60;;
72132;SDS011;60008;50.826;6.896;2023-02-28T11:33:26;3.83;;;1.92;;
72132;SDS011;60008;50.826;6.896;2023-02-28T11:36:20;3.93;;;1.60;;
72132;SDS011;60008;50.826;6.896;2023-02-28T11:39:09;1.52;;;0.70;;
72132;SDS011;60008;50.826;6.896;2023-02-28T11:45:17;3.03;;;1.35;;
72132;SDS011;60008;50.826;6.896;2023-02-28T11:54:43;2.38;;;0.90;;
72132;SDS011;60008;50.826;6.896;2023-02-28T12:11:04;2.65;;;1.30;;
72132;SDS011;60008;50.826;6.896;2023-02-28T12:17:41;2.17;;;0.60;;
72132;SDS011;60008;50.826;6.896;2023-02-28T12:26:17;6.72;;;1.60;;
72132;SDS011;60008;50.826;6.896;2023-02-28T12:32:15;3.95;;;1.50;;
72132;SDS011;60008;50.826;6.896;2023-02-28T12:37:55;3.00;;;1.23;;
72132;SDS011;60008;50.826;6.896;2023-02-28T12:40:48;2.63;;;1.15;;
72132;SDS011;60008;50.826;6.896;2023-02-28T12:43:36;2.58;;;1.00;;
72132;SDS011;60008;50.826;6.896;2023-02-28T12:46:35;2.83;;;1.08;;
72132;SDS011;60008;50.826;6.896;2023-02-28T12:49:28;5.28;;;1.20;;
72132;SDS011;60008;50.826;6.896;2023-02-28T12:55:35;3.05;;;0.80;;
72132;SDS011;60008;50.826;6.896;2023-02-28T12:58:29;1.63;;;0.70;;
72132;SDS011;60008;50.826;6.896;2023-02-28T13:11:02;3.63;;;1.50;;
72132;SDS011;60008;50.826;6.896;2023-02-28T13:13:58;3.60;;;1.70;;
72132;SDS011;60008;50.826;6.896;2023-02-28T13:16:55;3.67;;;1.80;;
72132;SDS011;60008;50.826;6.896;2023-02-28T13:22:47;1.70;;;0.80;;
72132;SDS011;60008;50.826;6.896;2023-02-28T13:28:56;2.42;;;0.85;;
72132;SDS011;60008;50.826;6.896;2023-02-28T13:31:32;4.35;;;1.05;;
72132;SDS011;60008;50.826;6.896;2023-02-28T13:37:42;1.90;;;0.70;;
72132;SDS011;60008;50.826;6.896;2023-02-28T13:40:32;2.65;;;1.38;;
72132;SDS011;60008;50.826;6.896;2023-02-28T13:43:24;2.72;;;0.80;;
72132;SDS011;60008;50.826;6.896;2023-02-28T13:49:34;2.47;;;0.93;;
72132;SDS011;60008;50.826;6.896;2023-02-28T13:52:21;1.60;;;0.73;;
72132;SDS011;60008;50.826;6.896;2023-02-28T14:01:36;2.55;;;1.08;;
72132;SDS011;60008;50.826;6.896;2023-02-28T14:07:37;2.50;;;1.30;;
72132;SDS011;60008;50.826;6.896;2023-02-28T14:10:33;1.77;;;0.80;;
72132;SDS011;60008;50.826;6.896;2023-02-28T14:16:13;3.65;;;1.63;;
72132;SDS011;60008;50.826;6.896;2023-02-28T14:19:00;3.08;;;1.45;;
72132;SDS011;60008;50.826;6.896;2023-02-28T14:21:59;4.67;;;1.63;;
72132;SDS011;60008;50.826;6.896;2023-02-28T14:25:07;2.85;;;1.20;;
72132;SDS011;60008;50.826;6.896;2023-02-28T14:33:57;2.38;;;1.10;;
72132;SDS011;60008;50.826;6.896;2023-02-28T14:37:03;3.30;;;1.57;;
72132;SDS011;60008;50.826;6.896;2023-02-28T14:39:49;5.10;;;2.30;;
72132;SDS011;60008;50.826;6.896;2023-02-28T14:42:36;3.60;;;1.58;;
72132;SDS011;60008;50.826;6.896;2023-02-28T14:45:29;4.35;;;2.00;;
72132;SDS011;60008;50.826;6.896;2023-02-28T14:48:16;2.70;;;1.23;;
72132;SDS011;60008;50.826;6.896;2023-02-28T14:51:03;2.97;;;1.03;;
72132;SDS011;60008;50.826;6.896;2023-02-28T14:53:49;2.70;;;0.93;;
72132;SDS011;60008;50.826;6.896;2023-02-28T14:56:41;2.83;;;1.30;;
72132;SDS011;60008;50.826;6.896;2023-02-28T14:59:30;3.53;;;1.67;;
72132;SDS011;60008;50.826;6.896;2023-02-28T15:02:22;2.83;;;1.55;;
72132;SDS011;60008;50.826;6.896;2023-02-28T15:08:04;5.47;;;2.78;;
72132;SDS011;60008;50.826;6.896;2023-02-28T15:10:57;5.55;;;2.50;;
72132;SDS011;60008;50.826;6.896;2023-02-28T15:13:52;7.40;;;2.80;;
72132;SDS011;60008;50.826;6.896;2023-02-28T15:16:42;5.13;;;2.13;;
72132;SDS011;60008;50.826;6.896;2023-02-28T15:19:30;4.20;;;2.10;;
72132;SDS011;60008;50.826;6.896;2023-02-28T15:22:20;3.33;;;1.50;;
72132;SDS011;60008;50.826;6.896;2023-02-28T15:25:17;3.60;;;1.48;;
72132;SDS011;60008;50.826;6.896;2023-02-28T15:28:05;4.68;;;1.67;;
72132;SDS011;60008;50.826;6.896;2023-02-28T15:30:50;3.00;;;1.17;;
72132;SDS011;60008;50.826;6.896;2023-02-28T15:33:47;2.20;;;1.00;;
72132;SDS011;60008;50.826;6.896;2023-02-28T15:36:37;6.38;;;0.90;;
72132;SDS011;60008;50.826;6.896;2023-02-28T15:39:25;4.78;;;2.45;;
72132;SDS011;60008;50.826;6.896;2023-02-28T15:42:16;2.67;;;1.17;;
72132;SDS011;60008;50.826;6.896;2023-02-28T15:45:04;2.92;;;1.20;;
72132;SDS011;60008;50.826;6.896;2023-02-28T15:47:50;1.43;;;0.70;;
72132;SDS011;60008;50.826;6.896;2023-02-28T15:50:37;4.82;;;1.95;;
72132;SDS011;60008;50.826;6.896;2023-02-28T15:53:26;2.70;;;0.77;;
72132;SDS011;60008;50.826;6.896;2023-02-28T15:56:46;4.25;;;1.73;;
72132;SDS011;60008;50.826;6.896;2023-02-28T15:59:35;5.07;;;1.73;;
72132;SDS011;60008;50.826;6.896;2023-02-28T16:02:22;6.27;;;1.70;;
72132;SDS011;60008;50.826;6.896;2023-02-28T16:05:18;3.22;;;1.48;;
72132;SDS011;60008;50.826;6.896;2023-02-28T16:08:13;5.03;;;1.95;;
72132;SDS011;60008;50.826;6.896;2023-02-28T16:11:00;3.60;;;1.55;;
72132;SDS011;60008;50.826;6.896;2023-02-28T16:13:45;4.20;;;1.65;;
72132;SDS011;60008;50.826;6.896;2023-02-28T16:16:31;3.53;;;1.63;;
72132;SDS011;60008;50.826;6.896;2023-02-28T16:19:18;2.38;;;0.95;;
72132;SDS011;60008;50.826;6.896;2023-02-28T16:22:03;4.75;;;1.90;;
72132;SDS011;60008;50.826;6.896;2023-02-28T16:24:48;5.22;;;1.85;;
72132;SDS011;60008;50.826;6.896;2023-02-28T16:27:35;5.22;;;1.65;;
72132;SDS011;60008;50.826;6.896;2023-02-28T16:30:24;5.00;;;1.10;;
72132;SDS011;60008;50.826;6.896;2023-02-28T16:33:10;4.45;;;2.00;;
72132;SDS011;60008;50.826;6.896;2023-02-28T16:35:55;3.30;;;1.50;;
72132;SDS011;60008;50.826;6.896;2023-02-28T16:38:40;6.55;;;2.22;;
72132;SDS011;60008;50.826;6.896;2023-02-28T16:41:25;3.88;;;2.00;;
72132;SDS011;60008;50.826;6.896;2023-02-28T16:44:14;4.17;;;1.73;;
72132;SDS011;60008;50.826;6.896;2023-02-28T16:47:08;4.88;;;1.77;;
72132;SDS011;60008;50.826;6.896;2023-02-28T16:49:55;5.05;;;2.00;;
72132;SDS011;60008;50.826;6.896;2023-02-28T16:52:41;4.13;;;1.50;;
72132;SDS011;60008;50.826;6.896;2023-02-28T16:55:26;5.35;;;2.10;;
72132;SDS011;60008;50.826;6.896;2023-02-28T16:58:13;5.57;;;2.00;;
72132;SDS011;60008;50.826;6.896;2023-02-28T17:01:00;6.00;;;1.98;;
72132;SDS011;60008;50.826;6.896;2023-02-28T17:03:45;4.07;;;1.95;;
72132;SDS011;60008;50.826;6.896;2023-02-28T17:06:30;5.63;;;1.98;;
72132;SDS011;60008;50.826;6.896;2023-02-28T17:09:19;7.35;;;2.45;;
72132;SDS011;60008;50.826;6.896;2023-02-28T17:12:14;5.03;;;2.30;;
72132;SDS011;60008;50.826;6.896;2023-02-28T17:14:59;8.25;;;2.40;;
72132;SDS011;60008;50.826;6.896;2023-02-28T17:17:45;8.52;;;3.33;;
72132;SDS011;60008;50.826;6.896;2023-02-28T17:20:31;8.98;;;4.68;;
72132;SDS011;60008;50.826;6.896;2023-02-28T17:23:16;10.45;;;4.28;;
72132;SDS011;60008;50.826;6.896;2023-02-28T17:26:01;8.60;;;3.80;;
72132;SDS011;60008;50.826;6.896;2023-02-28T17:28:48;17.75;;;8.07;;
72132;SDS011;60008;50.826;6.896;2023-02-28T17:31:33;10.38;;;4.70;;
72132;SDS011;60008;50.826;6.896;2023-02-28T17:34:25;10.60;;;5.05;;
72132;SDS011;60008;50.826;6.896;2023-02-28T17:37:10;5.10;;;2.30;;
72132;SDS011;60008;50.826;6.896;2023-02-28T17:39:55;6.40;;;3.13;;
72132;SDS011;60008;50.826;6.896;2023-02-28T17:42:40;4.95;;;2.13;;
72132;SDS011;60008;50.826;6.896;2023-02-28T17:45:25;4.25;;;1.77;;
72132;SDS011;60008;50.826;6.896;2023-02-28T17:48:11;8.93;;;1.92;;
72132;SDS011;60008;50.826;6.896;2023-02-28T17:50:56;7.47;;;2.30;;
72132;SDS011;60008;50.826;6.896;2023-02-28T17:53:42;6.87;;;2.30;;
72132;SDS011;60008;50.826;6.896;2023-02-28T17:56:27;5.20;;;2.10;;
72132;SDS011;60008;50.826;6.896;2023-02-28T17:59:13;5.47;;;2.40;;
72132;SDS011;60008;50.826;6.896;2023-02-28T18:01:59;6.22;;;2.45;;
72132;SDS011;60008;50.826;6.896;2023-02-28T18:04:45;6.50;;;2.20;;
72132;SDS011;60008;50.826;6.896;2023-02-28T18:07:30;7.10;;;3.43;;
72132;SDS011;60008;50.826;6.896;2023-02-28T18:10:16;4.90;;;2.30;;
72132;SDS011;60008;50.826;6.896;2023-02-28T18:13:04;8.85;;;3.17;;
72132;SDS011;60008;50.826;6.896;2023-02-28T18:15:48;6.07;;;2.33;;
72132;SDS011;60008;50.826;6.896;2023-02-28T18:18:33;4.78;;;2.25;;
72132;SDS011;60008;50.826;6.896;2023-02-28T18:21:21;5.27;;;2.00;;
72132;SDS011;60008;50.826;6.896;2023-02-28T18:24:07;4.78;;;2.30;;
72132;SDS011;60008;50.826;6.896;2023-02-28T18:26:52;5.13;;;2.33;;
72132;SDS011;60008;50.826;6.896;2023-02-28T18:29:37;4.85;;;2.40;;
72132;SDS011;60008;50.826;6.896;2023-02-28T18:32:25;4.20;;;1.88;;
72132;SDS011;60008;50.826;6.896;2023-02-28T18:35:10;8.50;;;2.57;;
72132;SDS011;60008;50.826;6.896;2023-02-28T18:37:55;4.75;;;2.03;;
72132;SDS011;60008;50.826;6.896;2023-02-28T18:40:40;7.50;;;2.88;;
72132;SDS011;60008;50.826;6.896;2023-02-28T18:43:27;11.70;;;2.72;;
72132;SDS011;60008;50.826;6.896;2023-02-28T18:46:14;6.93;;;2.38;;
72132;SDS011;60008;50.826;6.896;2023-02-28T18:49:00;4.87;;;2.03;;
72132;SDS011;60008;50.826;6.896;2023-02-28T18:51:45;7.28;;;2.30;;
72132;SDS011;60008;50.826;6.896;2023-02-28T18:54:31;8.20;;;2.40;;
72132;SDS011;60008;50.826;6.896;2023-02-28T18:57:16;4.60;;;2.03;;
72132;SDS011;60008;50.826;6.896;2023-02-28T19:00:01;5.38;;;2.13;;
72132;SDS011;60008;50.826;6.896;2023-02-28T19:02:47;11.40;;;4.00;;
72132;SDS011;60008;50.826;6.896;2023-02-28T19:05:34;10.90;;;4.60;;